sensor_id;sensor_type;location;lat;lon;timestamp;pressure;altitude;pressure_sealevel;temperature;humidity
56334;BME280;42240;53.626;55.886;2023-08-31T00:01:06;75224.28;;;-145.10;100.00
56334;BME280;42240;53.626;55.886;2023-08-31T00:02:57;75214.38;;;-145.10;100.00
56334;BME280;42240;53.626;55.886;2023-08-31T00:04:51;75216.38;;;-145.10;100.00
56334;BME280;42240;53.626;55.886;2023-08-31T00:06:42;75216.38;;;-145.10;100.00
56334;BME280;42240;53.626;55.886;2023-08-31T00:08:35;75216.38;;;-145.10;100.00
56334;BME280;42240;53.626;55.886;2023-08-31T00:10:26;75218.34;;;-145.10;100.00
56334;BME280;42240;53.626;55.886;2023-08-31T00:12:18;75222.28;;;-145.10;100.00
56334;BME280;42240;53.626;55.886;2023-08-31T00:14:10;75200.53;;;-145.10;100.00
56334;BME280;42240;53.626;55.886;2023-08-31T00:16:01;75204.50;;;-145.10;100.00
56334;BME280;42240;53.626;55.886;2023-08-31T00:17:52;75200.53;;;-145.10;100.00
56334;BME280;42240;53.626;55.886;2023-08-31T00:19:44;75210.44;;;-145.10;100.00
56334;BME280;42240;53.626;55.886;2023-08-31T00:21:35;75202.53;;;-145.10;100.00
56334;BME280;42240;53.626;55.886;2023-08-31T00:23:26;75204.50;;;-145.10;100.00
56334;BME280;42240;53.626;55.886;2023-08-31T00:25:17;75192.63;;;-145.10;100.00
56334;BME280;42240;53.626;55.886;2023-08-31T00:27:09;75194.63;;;-145.10;100.00
56334;BME280;42240;53.626;55.886;2023-08-31T00:29:01;75190.66;;;-145.10;100.00
56334;BME280;42240;53.626;55.886;2023-08-31T00:30:52;75184.72;;;-145.10;100.00
56334;BME280;42240;53.626;55.886;2023-08-31T00:32:43;75184.72;;;-145.10;100.00
56334;BME280;42240;53.626;55.886;2023-08-31T00:34:38;75188.69;;;-145.10;100.00
56334;BME280;42240;53.626;55.886;2023-08-31T00:36:31;75196.59;;;-145.10;100.00
56334;BME280;42240;53.626;55.886;2023-08-31T00:38:23;75200.53;;;-145.10;100.00
56334;BME280;42240;53.626;55.886;2023-08-31T00:40:14;75180.78;;;-145.10;100.00
56334;BME280;42240;53.626;55.886;2023-08-31T00:42:07;75200.53;;;-145.10;100.00
56334;BME280;42240;53.626;55.886;2023-08-31T00:43:59;75200.53;;;-145.10;100.00
56334;BME280;42240;53.626;55.886;2023-08-31T00:45:51;75206.47;;;-145.10;100.00
56334;BME280;42240;53.626;55.886;2023-08-31T00:47:42;75208.47;;;-145.10;100.00
56334;BME280;42240;53.626;55.886;2023-08-31T00:49:34;75210.44;;;-145.10;100.00
56334;BME280;42240;53.626;55.886;2023-08-31T00:51:26;75208.47;;;-145.10;100.00
56334;BME280;42240;53.626;55.886;2023-08-31T00:53:17;75206.47;;;-145.10;100.00
56334;BME280;42240;53.626;55.886;2023-08-31T00:55:09;75208.47;;;-145.10;100.00
56334;BME280;42240;53.626;55.886;2023-08-31T00:57:01;75218.34;;;-145.10;100.00
56334;BME280;42240;53.626;55.886;2023-08-31T00:58:52;75242.06;;;-145.10;100.00
56334;BME280;42240;53.626;55.886;2023-08-31T01:02:59;75251.94;;;-145.10;100.00
56334;BME280;42240;53.626;55.886;2023-08-31T01:05:08;75251.94;;;-145.10;100.00
56334;BME280;42240;53.626;55.886;2023-08-31T01:11:08;75244.03;;;-145.10;100.00
56334;BME280;42240;53.626;55.886;2023-08-31T01:13:37;75246.00;;;-145.10;100.00
56334;BME280;42240;53.626;55.886;2023-08-31T01:15:21;75244.03;;;-145.10;100.00
56334;BME280;42240;53.626;55.886;2023-08-31T01:17:13;75232.19;;;-145.10;100.00
56334;BME280;42240;53.626;55.886;2023-08-31T01:19:09;75230.19;;;-145.10;100.00
56334;BME280;42240;53.626;55.886;2023-08-31T01:23:02;75238.09;;;-145.10;100.00
56334;BME280;42240;53.626;55.886;2023-08-31T01:24:55;75232.19;;;-145.10;100.00
56334;BME280;42240;53.626;55.886;2023-08-31T01:26:47;75224.28;;;-145.10;100.00
56334;BME280;42240;53.626;55.886;2023-08-31T01:28:38;75226.25;;;-145.10;100.00
56334;BME280;42240;53.626;55.886;2023-08-31T01:30:29;75224.28;;;-145.10;100.00
56334;BME280;42240;53.626;55.886;2023-08-31T01:32:22;75230.19;;;-145.10;100.00
56334;BME280;42240;53.626;55.886;2023-08-31T01:34:13;75224.28;;;-145.10;100.00
56334;BME280;42240;53.626;55.886;2023-08-31T01:36:07;75216.38;;;-145.10;100.00
56334;BME280;42240;53.626;55.886;2023-08-31T01:38:00;75220.31;;;-145.10;100.00
56334;BME280;42240;53.626;55.886;2023-08-31T01:39:54;75220.31;;;-145.10;100.00
56334;BME280;42240;53.626;55.886;2023-08-31T01:41:48;75220.31;;;-145.10;100.00
56334;BME280;42240;53.626;55.886;2023-08-31T01:43:41;75216.38;;;-145.10;100.00
56334;BME280;42240;53.626;55.886;2023-08-31T01:45:33;75214.38;;;-145.10;100.00
56334;BME280;42240;53.626;55.886;2023-08-31T01:47:27;75210.44;;;-145.10;100.00
56334;BME280;42240;53.626;55.886;2023-08-31T01:49:19;75208.47;;;-145.10;100.00
56334;BME280;42240;53.626;55.886;2023-08-31T01:51:10;75224.28;;;-145.10;100.00
56334;BME280;42240;53.626;55.886;2023-08-31T01:53:02;75216.38;;;-145.10;100.00
56334;BME280;42240;53.626;55.886;2023-08-31T01:54:53;75220.31;;;-145.10;100.00
56334;BME280;42240;53.626;55.886;2023-08-31T01:56:44;75204.50;;;-145.10;100.00
56334;BME280;42240;53.626;55.886;2023-08-31T01:58:36;75204.50;;;-145.10;100.00
56334;BME280;42240;53.626;55.886;2023-08-31T02:00:28;75200.53;;;-145.10;100.00
56334;BME280;42240;53.626;55.886;2023-08-31T02:02:20;75200.53;;;-145.10;100.00
56334;BME280;42240;53.626;55.886;2023-08-31T02:04:11;75186.72;;;-145.10;100.00
56334;BME280;42240;53.626;55.886;2023-08-31T02:06:02;75168.91;;;-145.10;100.00
56334;BME280;42240;53.626;55.886;2023-08-31T02:07:55;75153.09;;;-145.10;100.00
56334;BME280;42240;53.626;55.886;2023-08-31T02:09:46;75141.25;;;-145.10;100.00
56334;BME280;42240;53.626;55.886;2023-08-31T02:11:37;75137.28;;;-145.10;100.00
56334;BME280;42240;53.626;55.886;2023-08-31T02:13:29;75135.31;;;-145.10;100.00
56334;BME280;42240;53.626;55.886;2023-08-31T02:15:21;75139.28;;;-145.10;100.00
56334;BME280;42240;53.626;55.886;2023-08-31T02:17:12;75131.38;;;-145.10;100.00
56334;BME280;42240;53.626;55.886;2023-08-31T02:19:03;75135.31;;;-145.10;100.00
56334;BME280;42240;53.626;55.886;2023-08-31T02:20:55;75137.28;;;-145.10;100.00
56334;BME280;42240;53.626;55.886;2023-08-31T02:22:46;75135.31;;;-145.10;100.00
56334;BME280;42240;53.626;55.886;2023-08-31T02:24:38;75137.28;;;-145.10;100.00
56334;BME280;42240;53.626;55.886;2023-08-31T02:26:29;75135.31;;;-145.10;100.00
56334;BME280;42240;53.626;55.886;2023-08-31T02:28:21;75135.31;;;-145.10;100.00
56334;BME280;42240;53.626;55.886;2023-08-31T02:30:14;75137.28;;;-145.10;100.00
56334;BME280;42240;53.626;55.886;2023-08-31T02:32:06;75137.28;;;-145.10;100.00
56334;BME280;42240;53.626;55.886;2023-08-31T02:33:58;75137.28;;;-145.10;100.00
56334;BME280;42240;53.626;55.886;2023-08-31T02:35:50;75135.31;;;-145.10;100.00
56334;BME280;42240;53.626;55.886;2023-08-31T02:37:52;75133.34;;;-145.10;100.00
56334;BME280;42240;53.626;55.886;2023-08-31T02:39:43;75125.44;;;-145.10;100.00
56334;BME280;42240;53.626;55.886;2023-08-31T02:41:35;75119.50;;;-145.10;100.00
56334;BME280;42240;53.626;55.886;2023-08-31T02:43:28;75117.53;;;-145.10;100.00
56334;BME280;42240;53.626;55.886;2023-08-31T02:45:21;75113.56;;;-145.10;100.00
56334;BME280;42240;53.626;55.886;2023-08-31T02:47:14;75121.47;;;-145.10;100.00
56334;BME280;42240;53.626;55.886;2023-08-31T02:49:09;75119.50;;;-145.10;100.00
56334;BME280;42240;53.626;55.886;2023-08-31T02:51:00;75123.47;;;-145.10;100.00
56334;BME280;42240;53.626;55.886;2023-08-31T02:52:52;75117.53;;;-145.10;100.00
56334;BME280;42240;53.626;55.886;2023-08-31T02:54:43;75117.53;;;-145.10;100.00
56334;BME280;42240;53.626;55.886;2023-08-31T02:56:36;75113.56;;;-145.10;100.00
56334;BME280;42240;53.626;55.886;2023-08-31T02:58:31;75109.63;;;-145.10;100.00
56334;BME280;42240;53.626;55.886;2023-08-31T03:00:23;75117.53;;;-145.10;100.00
56334;BME280;42240;53.626;55.886;2023-08-31T03:02:15;75115.56;;;-145.10;100.00
56334;BME280;42240;53.626;55.886;2023-08-31T03:04:06;75113.56;;;-145.10;100.00
56334;BME280;42240;53.626;55.886;2023-08-31T03:05:59;75113.56;;;-145.10;100.00
56334;BME280;42240;53.626;55.886;2023-08-31T03:07:50;75101.72;;;-145.10;100.00
56334;BME280;42240;53.626;55.886;2023-08-31T03:09:48;75095.78;;;-145.10;100.00
56334;BME280;42240;53.626;55.886;2023-08-31T03:11:40;75079.97;;;-145.10;100.00
56334;BME280;42240;53.626;55.886;2023-08-31T03:13:32;75081.94;;;-145.10;100.00
56334;BME280;42240;53.626;55.886;2023-08-31T03:15:23;75062.19;;;-145.10;100.00
56334;BME280;42240;53.626;55.886;2023-08-31T03:17:15;75060.22;;;-145.10;100.00
56334;BME280;42240;53.626;55.886;2023-08-31T03:19:06;75054.28;;;-145.10;100.00
56334;BME280;42240;53.626;55.886;2023-08-31T03:20:58;75054.28;;;-145.10;100.00
56334;BME280;42240;53.626;55.886;2023-08-31T03:22:49;75058.22;;;-145.10;100.00
56334;BME280;42240;53.626;55.886;2023-08-31T03:24:41;75058.22;;;-145.10;100.00
56334;BME280;42240;53.626;55.886;2023-08-31T03:26:32;75056.25;;;-145.10;100.00
56334;BME280;42240;53.626;55.886;2023-08-31T03:28:27;75066.13;;;-145.10;100.00
56334;BME280;42240;53.626;55.886;2023-08-31T03:30:18;75066.13;;;-145.10;100.00
56334;BME280;42240;53.626;55.886;2023-08-31T03:32:10;75066.13;;;-145.10;100.00
56334;BME280;42240;53.626;55.886;2023-08-31T03:34:01;75072.06;;;-145.10;100.00
56334;BME280;42240;53.626;55.886;2023-08-31T03:35:53;75070.09;;;-145.10;100.00
56334;BME280;42240;53.626;55.886;2023-08-31T03:37:47;75070.09;;;-145.10;100.00
56334;BME280;42240;53.626;55.886;2023-08-31T03:39:39;75068.09;;;-145.10;100.00
56334;BME280;42240;53.626;55.886;2023-08-31T03:41:32;75048.34;;;-145.10;100.00
56334;BME280;42240;53.626;55.886;2023-08-31T03:43:23;75048.34;;;-145.10;100.00
56334;BME280;42240;53.626;55.886;2023-08-31T03:45:15;75042.41;;;-145.10;100.00
56334;BME280;42240;53.626;55.886;2023-08-31T03:47:06;75050.31;;;-145.10;100.00
56334;BME280;42240;53.626;55.886;2023-08-31T03:48:58;75030.56;;;-145.10;100.00
56334;BME280;42240;53.626;55.886;2023-08-31T03:50:50;75034.50;;;-145.10;100.00
56334;BME280;42240;53.626;55.886;2023-08-31T03:52:42;75036.47;;;-145.10;100.00
56334;BME280;42240;53.626;55.886;2023-08-31T03:54:33;75034.50;;;-145.10;100.00
56334;BME280;42240;53.626;55.886;2023-08-31T03:56:25;75036.47;;;-145.10;100.00
56334;BME280;42240;53.626;55.886;2023-08-31T03:58:16;75020.66;;;-145.10;100.00
56334;BME280;42240;53.626;55.886;2023-08-31T04:00:10;75002.88;;;-145.10;100.00
56334;BME280;42240;53.626;55.886;2023-08-31T04:02:03;75016.72;;;-145.10;100.00
56334;BME280;42240;53.626;55.886;2023-08-31T04:03:55;75016.72;;;-145.10;100.00
56334;BME280;42240;53.626;55.886;2023-08-31T04:05:47;75022.66;;;-145.10;100.00
56334;BME280;42240;53.626;55.886;2023-08-31T04:07:38;75010.78;;;-145.10;100.00
56334;BME280;42240;53.626;55.886;2023-08-31T04:09:30;74996.94;;;-145.10;100.00
56334;BME280;42240;53.626;55.886;2023-08-31T04:11:22;74998.94;;;-145.10;100.00
56334;BME280;42240;53.626;55.886;2023-08-31T04:13:13;75010.78;;;-145.10;100.00
56334;BME280;42240;53.626;55.886;2023-08-31T04:15:05;75000.91;;;-145.10;100.00
56334;BME280;42240;53.626;55.886;2023-08-31T04:16:57;74994.97;;;-145.10;100.00
56334;BME280;42240;53.626;55.886;2023-08-31T04:18:48;74979.16;;;-145.10;100.00
56334;BME280;42240;53.626;55.886;2023-08-31T04:20:49;74953.47;;;-145.10;100.00
56334;BME280;42240;53.626;55.886;2023-08-31T04:22:40;74951.50;;;-145.10;100.00
56334;BME280;42240;53.626;55.886;2023-08-31T04:24:31;74943.59;;;-145.10;100.00
56334;BME280;42240;53.626;55.886;2023-08-31T04:26:22;74941.59;;;-145.10;100.00
56334;BME280;42240;53.626;55.886;2023-08-31T04:28:15;74931.72;;;-145.10;100.00
56334;BME280;42240;53.626;55.886;2023-08-31T04:30:06;74923.81;;;-145.10;100.00
56334;BME280;42240;53.626;55.886;2023-08-31T04:31:58;74931.72;;;-145.10;100.00
56334;BME280;42240;53.626;55.886;2023-08-31T04:33:49;74939.63;;;-145.10;100.00
56334;BME280;42240;53.626;55.886;2023-08-31T04:35:44;74953.47;;;-145.10;100.00
56334;BME280;42240;53.626;55.886;2023-08-31T04:37:36;74953.47;;;-145.10;100.00
56334;BME280;42240;53.626;55.886;2023-08-31T04:39:27;74959.41;;;-145.10;100.00
56334;BME280;42240;53.626;55.886;2023-08-31T04:41:18;74955.44;;;-145.10;100.00
56334;BME280;42240;53.626;55.886;2023-08-31T04:43:10;74923.81;;;-145.10;100.00
56334;BME280;42240;53.626;55.886;2023-08-31T04:45:01;74911.97;;;-145.10;100.00
56334;BME280;42240;53.626;55.886;2023-08-31T04:46:54;74896.16;;;-145.10;100.00
56334;BME280;42240;53.626;55.886;2023-08-31T04:48:46;74866.50;;;-145.10;100.00
56334;BME280;42240;53.626;55.886;2023-08-31T04:50:39;74880.34;;;-145.10;100.00
56334;BME280;42240;53.626;55.886;2023-08-31T04:52:32;74860.56;;;-145.10;100.00
56334;BME280;42240;53.626;55.886;2023-08-31T04:54:23;74868.47;;;-145.10;100.00
56334;BME280;42240;53.626;55.886;2023-08-31T04:56:16;74860.56;;;-145.10;100.00
56334;BME280;42240;53.626;55.886;2023-08-31T04:58:07;74832.91;;;-145.10;100.00
56334;BME280;42240;53.626;55.886;2023-08-31T04:59:59;74718.25;;;-145.10;100.00
56334;BME280;42240;53.626;55.886;2023-08-31T05:01:51;74682.69;;;-145.10;100.00
56334;BME280;42240;53.626;55.886;2023-08-31T05:03:42;74767.66;;;-145.10;100.00
56334;BME280;42240;53.626;55.886;2023-08-31T05:05:34;74821.03;;;-145.10;100.00
56334;BME280;42240;53.626;55.886;2023-08-31T05:07:26;74815.09;;;-145.10;100.00
56334;BME280;42240;53.626;55.886;2023-08-31T05:09:18;74803.25;;;-145.10;100.00
56334;BME280;42240;53.626;55.886;2023-08-31T05:11:10;74710.34;;;-145.10;100.00
56334;BME280;42240;53.626;55.886;2023-08-31T05:13:05;74374.38;;;-145.10;100.00
56334;BME280;42240;53.626;55.886;2023-08-31T05:14:56;74354.59;;;-145.10;100.00
56334;BME280;42240;53.626;55.886;2023-08-31T05:16:47;74238.00;;;-145.10;100.00
56334;BME280;42240;53.626;55.886;2023-08-31T05:18:38;74236.03;;;-145.10;100.00
56334;BME280;42240;53.626;55.886;2023-08-31T05:20:31;74380.28;;;-145.10;100.00
56334;BME280;42240;53.626;55.886;2023-08-31T05:22:22;74504.81;;;-145.10;100.00
56334;BME280;42240;53.626;55.886;2023-08-31T05:24:13;74564.09;;;-145.10;100.00
56334;BME280;42240;53.626;55.886;2023-08-31T05:26:05;74595.72;;;-145.10;100.00
56334;BME280;42240;53.626;55.886;2023-08-31T05:27:56;74635.25;;;-145.10;100.00
56334;BME280;42240;53.626;55.886;2023-08-31T05:29:47;74631.28;;;-145.10;100.00
56334;BME280;42240;53.626;55.886;2023-08-31T05:31:39;74627.34;;;-145.10;100.00
56334;BME280;42240;53.626;55.886;2023-08-31T05:33:31;74637.22;;;-145.10;100.00
56334;BME280;42240;53.626;55.886;2023-08-31T05:35:25;74649.09;;;-145.10;100.00
56334;BME280;42240;53.626;55.886;2023-08-31T05:37:16;74670.81;;;-145.10;100.00
56334;BME280;42240;53.626;55.886;2023-08-31T05:39:08;74696.53;;;-145.10;100.00
56334;BME280;42240;53.626;55.886;2023-08-31T05:41:03;74706.41;;;-145.10;100.00
56334;BME280;42240;53.626;55.886;2023-08-31T05:42:55;74724.19;;;-145.10;100.00
56334;BME280;42240;53.626;55.886;2023-08-31T05:44:46;74722.22;;;-145.10;100.00
56334;BME280;42240;53.626;55.886;2023-08-31T05:46:37;74718.25;;;-145.10;100.00
56334;BME280;42240;53.626;55.886;2023-08-31T05:48:30;74686.63;;;-145.10;100.00
56334;BME280;42240;53.626;55.886;2023-08-31T05:50:22;74662.91;;;-145.10;100.00
56334;BME280;42240;53.626;55.886;2023-08-31T05:52:13;74649.09;;;-145.10;100.00
56334;BME280;42240;53.626;55.886;2023-08-31T05:54:05;74666.88;;;-145.10;100.00
56334;BME280;42240;53.626;55.886;2023-08-31T05:56:01;74651.06;;;-145.10;100.00
56334;BME280;42240;53.626;55.886;2023-08-31T05:57:55;74666.88;;;-145.10;100.00
56334;BME280;42240;53.626;55.886;2023-08-31T05:59:47;74651.06;;;-145.10;100.00
56334;BME280;42240;53.626;55.886;2023-08-31T06:01:38;74607.59;;;-145.10;100.00
56334;BME280;42240;53.626;55.886;2023-08-31T06:03:30;74629.31;;;-145.10;100.00
56334;BME280;42240;53.626;55.886;2023-08-31T06:05:22;74625.38;;;-145.10;100.00
56334;BME280;42240;53.626;55.886;2023-08-31T06:07:13;74619.44;;;-145.10;100.00
56334;BME280;42240;53.626;55.886;2023-08-31T06:09:04;74643.16;;;-145.10;100.00
56334;BME280;42240;53.626;55.886;2023-08-31T06:10:58;74660.94;;;-145.10;100.00
56334;BME280;42240;53.626;55.886;2023-08-31T06:12:50;74666.88;;;-145.10;100.00
56334;BME280;42240;53.626;55.886;2023-08-31T06:14:43;74694.53;;;-145.10;100.00
56334;BME280;42240;53.626;55.886;2023-08-31T06:16:34;74702.44;;;-145.10;100.00
56334;BME280;42240;53.626;55.886;2023-08-31T06:18:26;74724.19;;;-145.10;100.00
56334;BME280;42240;53.626;55.886;2023-08-31T06:20:17;74734.06;;;-145.10;100.00
56334;BME280;42240;53.626;55.886;2023-08-31T06:22:09;74736.06;;;-145.10;100.00
56334;BME280;42240;53.626;55.886;2023-08-31T06:24:00;74732.09;;;-145.10;100.00
56334;BME280;42240;53.626;55.886;2023-08-31T06:25:52;74743.97;;;-145.10;100.00
56334;BME280;42240;53.626;55.886;2023-08-31T06:27:46;74751.84;;;-145.10;100.00
56334;BME280;42240;53.626;55.886;2023-08-31T06:29:44;74769.66;;;-145.10;100.00
56334;BME280;42240;53.626;55.886;2023-08-31T06:31:36;74757.78;;;-145.10;100.00
56334;BME280;42240;53.626;55.886;2023-08-31T06:33:28;74783.47;;;-145.10;100.00
56334;BME280;42240;53.626;55.886;2023-08-31T06:35:20;74773.59;;;-145.10;100.00
56334;BME280;42240;53.626;55.886;2023-08-31T06:37:11;74777.56;;;-145.10;100.00
56334;BME280;42240;53.626;55.886;2023-08-31T06:39:03;74771.63;;;-145.10;100.00
56334;BME280;42240;53.626;55.886;2023-08-31T06:40:55;74773.59;;;-145.10;100.00
56334;BME280;42240;53.626;55.886;2023-08-31T06:42:50;74757.78;;;-145.10;100.00
56334;BME280;42240;53.626;55.886;2023-08-31T06:44:42;74740.00;;;-145.10;100.00
56334;BME280;42240;53.626;55.886;2023-08-31T06:46:33;74741.97;;;-145.10;100.00
56334;BME280;42240;53.626;55.886;2023-08-31T06:48:28;74734.06;;;-145.10;100.00
56334;BME280;42240;53.626;55.886;2023-08-31T06:50:21;74698.50;;;-145.10;100.00
56334;BME280;42240;53.626;55.886;2023-08-31T06:52:12;74682.69;;;-145.10;100.00
56334;BME280;42240;53.626;55.886;2023-08-31T06:54:22;74660.94;;;-145.10;100.00
56334;BME280;42240;53.626;55.886;2023-08-31T06:56:17;74643.16;;;-145.10;100.00
56334;BME280;42240;53.626;55.886;2023-08-31T06:58:17;74651.06;;;-145.10;100.00
56334;BME280;42240;53.626;55.886;2023-08-31T07:00:09;74631.28;;;-145.10;100.00
56334;BME280;42240;53.626;55.886;2023-08-31T07:02:03;74643.16;;;-145.10;100.00
56334;BME280;42240;53.626;55.886;2023-08-31T07:03:55;74629.31;;;-145.10;100.00
56334;BME280;42240;53.626;55.886;2023-08-31T07:05:47;74651.06;;;-145.10;100.00
56334;BME280;42240;53.626;55.886;2023-08-31T07:07:39;74647.09;;;-145.10;100.00
56334;BME280;42240;53.626;55.886;2023-08-31T07:09:30;74631.28;;;-145.10;100.00
56334;BME280;42240;53.626;55.886;2023-08-31T07:11:21;74603.63;;;-145.10;100.00
56334;BME280;42240;53.626;55.886;2023-08-31T07:13:12;74552.25;;;-145.10;100.00
56334;BME280;42240;53.626;55.886;2023-08-31T07:15:04;74483.06;;;-145.10;100.00
56334;BME280;42240;53.626;55.886;2023-08-31T07:16:55;74461.31;;;-145.10;100.00
56334;BME280;42240;53.626;55.886;2023-08-31T07:18:47;74407.97;;;-145.10;100.00
56334;BME280;42240;53.626;55.886;2023-08-31T07:20:39;74427.72;;;-145.10;100.00
56334;BME280;42240;53.626;55.886;2023-08-31T07:22:34;74417.84;;;-145.10;100.00
56334;BME280;42240;53.626;55.886;2023-08-31T07:24:26;74477.13;;;-145.10;100.00
56334;BME280;42240;53.626;55.886;2023-08-31T07:26:21;74489.00;;;-145.10;100.00
56334;BME280;42240;53.626;55.886;2023-08-31T07:28:16;74500.84;;;-145.10;100.00
56334;BME280;42240;53.626;55.886;2023-08-31T07:30:09;74508.75;;;-145.10;100.00
56334;BME280;42240;53.626;55.886;2023-08-31T07:32:01;74540.38;;;-145.10;100.00
56334;BME280;42240;53.626;55.886;2023-08-31T07:33:54;74560.16;;;-145.10;100.00
56334;BME280;42240;53.626;55.886;2023-08-31T07:35:45;74572.00;;;-145.10;100.00
56334;BME280;42240;53.626;55.886;2023-08-31T07:37:37;74587.81;;;-145.10;100.00
56334;BME280;42240;53.626;55.886;2023-08-31T07:39:28;74583.88;;;-145.10;100.00
56334;BME280;42240;53.626;55.886;2023-08-31T07:41:19;74595.72;;;-145.10;100.00
56334;BME280;42240;53.626;55.886;2023-08-31T07:43:11;74597.69;;;-145.10;100.00
56334;BME280;42240;53.626;55.886;2023-08-31T07:45:03;74566.06;;;-145.10;100.00
56334;BME280;42240;53.626;55.886;2023-08-31T07:46:56;74568.06;;;-145.10;100.00
56334;BME280;42240;53.626;55.886;2023-08-31T07:48:48;74568.06;;;-145.10;100.00
56334;BME280;42240;53.626;55.886;2023-08-31T07:50:41;74558.16;;;-145.10;100.00
56334;BME280;42240;53.626;55.886;2023-08-31T07:52:33;74583.88;;;-145.10;100.00
56334;BME280;42240;53.626;55.886;2023-08-31T07:54:25;74599.69;;;-145.10;100.00
56334;BME280;42240;53.626;55.886;2023-08-31T07:56:16;74595.72;;;-145.10;100.00
56334;BME280;42240;53.626;55.886;2023-08-31T07:58:08;74587.81;;;-145.10;100.00
56334;BME280;42240;53.626;55.886;2023-08-31T08:00:00;74603.63;;;-145.10;100.00
56334;BME280;42240;53.626;55.886;2023-08-31T08:02:02;74615.47;;;-145.10;100.00
56334;BME280;42240;53.626;55.886;2023-08-31T08:03:54;74627.34;;;-145.10;100.00
56334;BME280;42240;53.626;55.886;2023-08-31T08:05:45;74619.44;;;-145.10;100.00
56334;BME280;42240;53.626;55.886;2023-08-31T08:07:36;74649.09;;;-145.10;100.00
56334;BME280;42240;53.626;55.886;2023-08-31T08:09:28;74664.91;;;-145.10;100.00
56334;BME280;42240;53.626;55.886;2023-08-31T08:11:21;74668.84;;;-145.10;100.00
56334;BME280;42240;53.626;55.886;2023-08-31T08:13:12;74680.72;;;-145.10;100.00
56334;BME280;42240;53.626;55.886;2023-08-31T08:15:05;74670.81;;;-145.10;100.00
56334;BME280;42240;53.626;55.886;2023-08-31T08:16:57;74668.84;;;-145.10;100.00
56334;BME280;42240;53.626;55.886;2023-08-31T08:18:50;74682.69;;;-145.10;100.00
56334;BME280;42240;53.626;55.886;2023-08-31T08:20:47;74682.69;;;-145.10;100.00
56334;BME280;42240;53.626;55.886;2023-08-31T08:22:38;74690.59;;;-145.10;100.00
56334;BME280;42240;53.626;55.886;2023-08-31T08:24:29;74706.41;;;-145.10;100.00
56334;BME280;42240;53.626;55.886;2023-08-31T08:26:21;74696.53;;;-145.10;100.00
56334;BME280;42240;53.626;55.886;2023-08-31T08:28:11;74700.47;;;-145.10;100.00
56334;BME280;42240;53.626;55.886;2023-08-31T08:30:03;74706.41;;;-145.10;100.00
56334;BME280;42240;53.626;55.886;2023-08-31T08:31:54;74726.16;;;-145.10;100.00
56334;BME280;42240;53.626;55.886;2023-08-31T08:33:46;74722.22;;;-145.10;100.00
56334;BME280;42240;53.626;55.886;2023-08-31T08:35:37;74730.13;;;-145.10;100.00
56334;BME280;42240;53.626;55.886;2023-08-31T08:37:30;74710.34;;;-145.10;100.00
56334;BME280;42240;53.626;55.886;2023-08-31T08:39:22;74716.28;;;-145.10;100.00
56334;BME280;42240;53.626;55.886;2023-08-31T08:41:14;74698.50;;;-145.10;100.00
56334;BME280;42240;53.626;55.886;2023-08-31T08:43:10;74694.53;;;-145.10;100.00
56334;BME280;42240;53.626;55.886;2023-08-31T08:45:02;74672.81;;;-145.10;100.00
56334;BME280;42240;53.626;55.886;2023-08-31T08:46:54;74666.88;;;-145.10;100.00
56334;BME280;42240;53.626;55.886;2023-08-31T08:48:49;74639.19;;;-145.10;100.00
56334;BME280;42240;53.626;55.886;2023-08-31T08:50:41;74621.41;;;-145.10;100.00
56334;BME280;42240;53.626;55.886;2023-08-31T08:52:33;74597.69;;;-145.10;100.00
56334;BME280;42240;53.626;55.886;2023-08-31T08:54:24;74577.94;;;-145.10;100.00
56334;BME280;42240;53.626;55.886;2023-08-31T08:56:16;74591.78;;;-145.10;100.00
56334;BME280;42240;53.626;55.886;2023-08-31T08:58:08;74587.81;;;-145.10;100.00
56334;BME280;42240;53.626;55.886;2023-08-31T08:59:59;74587.81;;;-145.10;100.00
56334;BME280;42240;53.626;55.886;2023-08-31T09:01:51;74534.44;;;-145.10;100.00
56334;BME280;42240;53.626;55.886;2023-08-31T09:03:42;74485.03;;;-145.10;100.00
56334;BME280;42240;53.626;55.886;2023-08-31T09:05:33;74463.31;;;-145.10;100.00
56334;BME280;42240;53.626;55.886;2023-08-31T09:07:25;74479.13;;;-145.10;100.00
56334;BME280;42240;53.626;55.886;2023-08-31T09:09:20;74504.81;;;-145.10;100.00
56334;BME280;42240;53.626;55.886;2023-08-31T09:11:19;74487.03;;;-145.10;100.00
56334;BME280;42240;53.626;55.886;2023-08-31T09:13:11;74475.16;;;-145.10;100.00
56334;BME280;42240;53.626;55.886;2023-08-31T09:15:03;74453.41;;;-145.10;100.00
56334;BME280;42240;53.626;55.886;2023-08-31T09:16:58;74447.50;;;-145.10;100.00
56334;BME280;42240;53.626;55.886;2023-08-31T09:18:50;74445.50;;;-145.10;100.00
56334;BME280;42240;53.626;55.886;2023-08-31T09:20:42;74413.91;;;-145.10;100.00
56334;BME280;42240;53.626;55.886;2023-08-31T09:22:34;74390.19;;;-145.10;100.00
56334;BME280;42240;53.626;55.886;2023-08-31T09:24:26;74394.13;;;-145.10;100.00
56334;BME280;42240;53.626;55.886;2023-08-31T09:26:17;74409.94;;;-145.10;100.00
56334;BME280;42240;53.626;55.886;2023-08-31T09:28:10;74407.97;;;-145.10;100.00
56334;BME280;42240;53.626;55.886;2023-08-31T09:30:02;74386.22;;;-145.10;100.00
56334;BME280;42240;53.626;55.886;2023-08-31T09:31:53;74380.28;;;-145.10;100.00
56334;BME280;42240;53.626;55.886;2023-08-31T09:33:51;74388.19;;;-145.10;100.00